Babbitt, Nevada
Current Conditions -  °F | °C
As of 1:52 PM on Monday 24 Nov 2014 (Local Time) from KBAN Reporting Station
Clear Clear  
Wind Chill: 51°   Ceiling: Unl
Heat Index: 51°   Visibility: NA
Dew Point:   Wind: 0mph
Humidity: 18%   Direction: NA
Pressure: 30.38"   Gusts: NA
Location:  38.6331°N, 118.656°W
Report Text: KBAN 242152Z AUTO 00000KT CLR 11/M13 A3038 RMK AO2 SLP285 T01061133 $
Loading
Personal Weather Stations






























Interactive Weather Map New forecast layout! Learn more

10-Day Weather Forecast

Advertisements
Track Severe Weather on mobile